sensor_id;sensor_type;location;lat;lon;timestamp;temperature;humidity
3684;DHT22;1858;48.716;9.648;2023-04-01T00:01:15;10.30;1.00
3684;DHT22;1858;48.716;9.648;2023-04-01T00:03:43;10.30;1.00
3684;DHT22;1858;48.716;9.648;2023-04-01T00:06:14;10.40;1.00
3684;DHT22;1858;48.716;9.648;2023-04-01T00:08:43;10.40;1.00
3684;DHT22;1858;48.716;9.648;2023-04-01T00:11:12;10.40;1.00
3684;DHT22;1858;48.716;9.648;2023-04-01T00:13:42;10.40;1.00
3684;DHT22;1858;48.716;9.648;2023-04-01T00:16:12;10.30;1.00
3684;DHT22;1858;48.716;9.648;2023-04-01T00:18:40;10.40;1.00
3684;DHT22;1858;48.716;9.648;2023-04-01T00:21:09;10.40;1.00
3684;DHT22;1858;48.716;9.648;2023-04-01T00:23:37;10.40;1.00
3684;DHT22;1858;48.716;9.648;2023-04-01T00:26:05;10.40;1.00
3684;DHT22;1858;48.716;9.648;2023-04-01T00:28:34;10.40;1.00
3684;DHT22;1858;48.716;9.648;2023-04-01T00:31:07;10.30;1.00
3684;DHT22;1858;48.716;9.648;2023-04-01T00:33:35;10.20;1.00
3684;DHT22;1858;48.716;9.648;2023-04-01T00:36:12;10.30;1.00
3684;DHT22;1858;48.716;9.648;2023-04-01T00:38:41;10.30;1.00
3684;DHT22;1858;48.716;9.648;2023-04-01T00:41:11;10.30;1.00
3684;DHT22;1858;48.716;9.648;2023-04-01T00:43:43;10.20;1.00
3684;DHT22;1858;48.716;9.648;2023-04-01T00:46:12;10.20;1.00
3684;DHT22;1858;48.716;9.648;2023-04-01T00:48:48;10.10;1.00
3684;DHT22;1858;48.716;9.648;2023-04-01T00:51:15;10.20;1.00
3684;DHT22;1858;48.716;9.648;2023-04-01T00:53:47;10.10;1.00
3684;DHT22;1858;48.716;9.648;2023-04-01T00:56:18;10.10;1.00
3684;DHT22;1858;48.716;9.648;2023-04-01T00:58:49;10.10;1.00
3684;DHT22;1858;48.716;9.648;2023-04-01T01:01:20;10.00;1.00
3684;DHT22;1858;48.716;9.648;2023-04-01T01:03:48;10.00;1.00
3684;DHT22;1858;48.716;9.648;2023-04-01T01:06:35;10.00;1.00
3684;DHT22;1858;48.716;9.648;2023-04-01T01:09:05;10.00;1.00
3684;DHT22;1858;48.716;9.648;2023-04-01T01:11:47;10.00;1.00
3684;DHT22;1858;48.716;9.648;2023-04-01T01:16:58;10.10;1.00
3684;DHT22;1858;48.716;9.648;2023-04-01T01:22:36;10.20;1.00
3684;DHT22;1858;48.716;9.648;2023-04-01T01:30:44;10.10;1.00
3684;DHT22;1858;48.716;9.648;2023-04-01T01:33:30;10.10;1.00
3684;DHT22;1858;48.716;9.648;2023-04-01T01:35:58;10.10;1.00
3684;DHT22;1858;48.716;9.648;2023-04-01T01:38:29;10.10;1.00
3684;DHT22;1858;48.716;9.648;2023-04-01T01:41:00;10.10;1.00
3684;DHT22;1858;48.716;9.648;2023-04-01T01:43:35;10.10;1.00
3684;DHT22;1858;48.716;9.648;2023-04-01T01:46:09;10.00;1.00
3684;DHT22;1858;48.716;9.648;2023-04-01T01:48:39;10.00;1.00
3684;DHT22;1858;48.716;9.648;2023-04-01T01:51:08;10.00;1.00
3684;DHT22;1858;48.716;9.648;2023-04-01T01:53:37;9.90;1.00
3684;DHT22;1858;48.716;9.648;2023-04-01T01:56:06;10.00;1.00
3684;DHT22;1858;48.716;9.648;2023-04-01T01:58:40;9.90;1.00
3684;DHT22;1858;48.716;9.648;2023-04-01T02:01:23;9.80;1.00
3684;DHT22;1858;48.716;9.648;2023-04-01T02:03:47;9.80;1.00
3684;DHT22;1858;48.716;9.648;2023-04-01T02:06:18;9.80;1.00
3684;DHT22;1858;48.716;9.648;2023-04-01T02:11:28;9.90;1.00
3684;DHT22;1858;48.716;9.648;2023-04-01T02:13:55;9.90;1.00
3684;DHT22;1858;48.716;9.648;2023-04-01T02:16:27;9.90;1.00
3684;DHT22;1858;48.716;9.648;2023-04-01T02:18:58;9.90;1.00
3684;DHT22;1858;48.716;9.648;2023-04-01T02:21:30;9.80;1.00
3684;DHT22;1858;48.716;9.648;2023-04-01T02:24:02;9.70;1.00
3684;DHT22;1858;48.716;9.648;2023-04-01T02:26:31;9.70;1.00
3684;DHT22;1858;48.716;9.648;2023-04-01T02:29:00;9.60;1.00
3684;DHT22;1858;48.716;9.648;2023-04-01T02:31:30;9.60;1.00
3684;DHT22;1858;48.716;9.648;2023-04-01T02:33:59;9.70;1.00
3684;DHT22;1858;48.716;9.648;2023-04-01T02:36:27;9.70;1.00
3684;DHT22;1858;48.716;9.648;2023-04-01T02:38:57;9.60;1.00
3684;DHT22;1858;48.716;9.648;2023-04-01T02:41:28;9.60;1.00
3684;DHT22;1858;48.716;9.648;2023-04-01T02:43:57;9.50;1.00
3684;DHT22;1858;48.716;9.648;2023-04-01T02:46:26;9.50;1.00
3684;DHT22;1858;48.716;9.648;2023-04-01T02:48:55;9.50;1.00
3684;DHT22;1858;48.716;9.648;2023-04-01T02:51:23;9.50;1.00
3684;DHT22;1858;48.716;9.648;2023-04-01T02:53:52;9.50;1.00
3684;DHT22;1858;48.716;9.648;2023-04-01T02:56:20;9.50;1.00
3684;DHT22;1858;48.716;9.648;2023-04-01T02:58:48;9.50;1.00
3684;DHT22;1858;48.716;9.648;2023-04-01T03:01:18;9.60;1.00
3684;DHT22;1858;48.716;9.648;2023-04-01T03:03:46;9.60;1.00
3684;DHT22;1858;48.716;9.648;2023-04-01T03:06:16;9.60;1.00
3684;DHT22;1858;48.716;9.648;2023-04-01T03:08:45;9.60;1.00
3684;DHT22;1858;48.716;9.648;2023-04-01T03:11:14;9.50;1.00
3684;DHT22;1858;48.716;9.648;2023-04-01T03:13:43;9.50;1.00
3684;DHT22;1858;48.716;9.648;2023-04-01T03:16:11;9.40;1.00
3684;DHT22;1858;48.716;9.648;2023-04-01T03:18:39;9.30;1.00
3684;DHT22;1858;48.716;9.648;2023-04-01T03:23:45;9.20;1.00
3684;DHT22;1858;48.716;9.648;2023-04-01T03:26:14;9.10;1.00
3684;DHT22;1858;48.716;9.648;2023-04-01T03:28:43;9.10;1.00
3684;DHT22;1858;48.716;9.648;2023-04-01T03:31:11;9.00;1.00
3684;DHT22;1858;48.716;9.648;2023-04-01T03:33:40;9.00;1.00
3684;DHT22;1858;48.716;9.648;2023-04-01T03:36:09;9.00;1.00
3684;DHT22;1858;48.716;9.648;2023-04-01T03:38:40;9.00;1.00
3684;DHT22;1858;48.716;9.648;2023-04-01T03:41:13;8.90;1.00
3684;DHT22;1858;48.716;9.648;2023-04-01T03:43:42;9.00;1.00
3684;DHT22;1858;48.716;9.648;2023-04-01T03:46:11;9.10;1.00
3684;DHT22;1858;48.716;9.648;2023-04-01T03:48:39;9.10;1.00
3684;DHT22;1858;48.716;9.648;2023-04-01T03:51:08;9.10;1.00
3684;DHT22;1858;48.716;9.648;2023-04-01T03:53:36;9.10;1.00
3684;DHT22;1858;48.716;9.648;2023-04-01T03:56:07;9.10;1.00
3684;DHT22;1858;48.716;9.648;2023-04-01T03:58:35;9.10;1.00
3684;DHT22;1858;48.716;9.648;2023-04-01T04:01:18;9.10;1.00
3684;DHT22;1858;48.716;9.648;2023-04-01T04:03:48;9.10;1.00
3684;DHT22;1858;48.716;9.648;2023-04-01T04:06:18;9.10;1.00
3684;DHT22;1858;48.716;9.648;2023-04-01T04:08:47;9.20;1.00
3684;DHT22;1858;48.716;9.648;2023-04-01T04:11:16;9.20;1.00
3684;DHT22;1858;48.716;9.648;2023-04-01T04:13:45;9.20;1.00
3684;DHT22;1858;48.716;9.648;2023-04-01T04:16:16;9.20;1.00
3684;DHT22;1858;48.716;9.648;2023-04-01T04:18:45;9.20;1.00
3684;DHT22;1858;48.716;9.648;2023-04-01T04:21:14;9.30;1.00
3684;DHT22;1858;48.716;9.648;2023-04-01T04:23:43;9.20;1.00
3684;DHT22;1858;48.716;9.648;2023-04-01T04:26:13;9.20;1.00
3684;DHT22;1858;48.716;9.648;2023-04-01T04:28:42;9.30;1.00
3684;DHT22;1858;48.716;9.648;2023-04-01T04:31:11;9.20;1.00
3684;DHT22;1858;48.716;9.648;2023-04-01T04:33:39;9.20;1.00
3684;DHT22;1858;48.716;9.648;2023-04-01T04:36:08;9.20;1.00
3684;DHT22;1858;48.716;9.648;2023-04-01T04:38:36;9.10;1.00
3684;DHT22;1858;48.716;9.648;2023-04-01T04:41:10;9.00;1.00
3684;DHT22;1858;48.716;9.648;2023-04-01T04:43:40;9.00;1.00
3684;DHT22;1858;48.716;9.648;2023-04-01T04:46:10;9.00;1.00
3684;DHT22;1858;48.716;9.648;2023-04-01T04:48:38;9.00;1.00
3684;DHT22;1858;48.716;9.648;2023-04-01T04:51:07;9.10;1.00
3684;DHT22;1858;48.716;9.648;2023-04-01T04:53:35;9.10;1.00
3684;DHT22;1858;48.716;9.648;2023-04-01T04:56:04;9.10;1.00
3684;DHT22;1858;48.716;9.648;2023-04-01T04:58:33;9.10;1.00
3684;DHT22;1858;48.716;9.648;2023-04-01T05:01:09;9.10;1.00
3684;DHT22;1858;48.716;9.648;2023-04-01T05:03:38;9.20;1.00
3684;DHT22;1858;48.716;9.648;2023-04-01T05:06:08;9.20;1.00
3684;DHT22;1858;48.716;9.648;2023-04-01T05:08:37;9.30;1.00
3684;DHT22;1858;48.716;9.648;2023-04-01T05:11:15;9.40;1.00
3684;DHT22;1858;48.716;9.648;2023-04-01T05:13:45;9.30;1.00
3684;DHT22;1858;48.716;9.648;2023-04-01T05:16:15;9.30;1.00
3684;DHT22;1858;48.716;9.648;2023-04-01T05:18:46;9.30;1.00
3684;DHT22;1858;48.716;9.648;2023-04-01T05:21:16;9.40;1.00
3684;DHT22;1858;48.716;9.648;2023-04-01T05:23:44;9.40;1.00
3684;DHT22;1858;48.716;9.648;2023-04-01T05:26:13;9.40;1.00
3684;DHT22;1858;48.716;9.648;2023-04-01T05:28:42;9.40;1.00
3684;DHT22;1858;48.716;9.648;2023-04-01T05:31:13;9.50;1.00
3684;DHT22;1858;48.716;9.648;2023-04-01T05:33:42;9.50;1.00
3684;DHT22;1858;48.716;9.648;2023-04-01T05:36:13;9.50;1.00
3684;DHT22;1858;48.716;9.648;2023-04-01T05:38:42;9.60;1.00
3684;DHT22;1858;48.716;9.648;2023-04-01T05:41:13;9.60;1.00
3684;DHT22;1858;48.716;9.648;2023-04-01T05:43:42;9.60;1.00
3684;DHT22;1858;48.716;9.648;2023-04-01T05:46:10;9.70;1.00
3684;DHT22;1858;48.716;9.648;2023-04-01T05:48:39;9.80;1.00
3684;DHT22;1858;48.716;9.648;2023-04-01T05:51:15;9.80;1.00
3684;DHT22;1858;48.716;9.648;2023-04-01T05:53:44;9.80;1.00
3684;DHT22;1858;48.716;9.648;2023-04-01T05:56:13;9.90;1.00
3684;DHT22;1858;48.716;9.648;2023-04-01T05:58:55;10.00;1.00
3684;DHT22;1858;48.716;9.648;2023-04-01T06:01:19;10.00;1.00
3684;DHT22;1858;48.716;9.648;2023-04-01T06:03:52;10.00;1.00
3684;DHT22;1858;48.716;9.648;2023-04-01T06:06:26;10.10;1.00
3684;DHT22;1858;48.716;9.648;2023-04-01T06:08:57;10.00;1.00
3684;DHT22;1858;48.716;9.648;2023-04-01T06:11:37;10.00;1.00
3684;DHT22;1858;48.716;9.648;2023-04-01T06:17:03;10.00;1.00
3684;DHT22;1858;48.716;9.648;2023-04-01T06:22:22;10.10;1.00
3684;DHT22;1858;48.716;9.648;2023-04-01T06:34:14;10.50;1.00
3684;DHT22;1858;48.716;9.648;2023-04-01T06:36:47;10.50;1.00
3684;DHT22;1858;48.716;9.648;2023-04-01T06:42:25;10.60;1.00
3684;DHT22;1858;48.716;9.648;2023-04-01T06:45:15;10.60;1.00
3684;DHT22;1858;48.716;9.648;2023-04-01T06:47:49;10.70;1.00
3684;DHT22;1858;48.716;9.648;2023-04-01T06:53:28;10.80;1.00
3684;DHT22;1858;48.716;9.648;2023-04-01T06:56:04;10.80;1.00
3684;DHT22;1858;48.716;9.648;2023-04-01T06:58:42;11.00;1.00
3684;DHT22;1858;48.716;9.648;2023-04-01T07:01:12;11.10;1.00
3684;DHT22;1858;48.716;9.648;2023-04-01T07:04:00;11.30;1.00
3684;DHT22;1858;48.716;9.648;2023-04-01T07:06:30;11.40;1.00
3684;DHT22;1858;48.716;9.648;2023-04-01T07:09:00;11.40;1.00
3684;DHT22;1858;48.716;9.648;2023-04-01T07:11:33;11.60;1.00
3684;DHT22;1858;48.716;9.648;2023-04-01T07:14:17;11.80;1.00
3684;DHT22;1858;48.716;9.648;2023-04-01T07:22:00;11.60;99.90
3684;DHT22;1858;48.716;9.648;2023-04-01T07:24:36;11.40;1.00
3684;DHT22;1858;48.716;9.648;2023-04-01T07:27:10;11.40;1.00
3684;DHT22;1858;48.716;9.648;2023-04-01T07:29:41;11.40;1.00
3684;DHT22;1858;48.716;9.648;2023-04-01T07:32:16;11.40;1.00
3684;DHT22;1858;48.716;9.648;2023-04-01T07:35:07;11.40;1.00
3684;DHT22;1858;48.716;9.648;2023-04-01T07:43:18;11.60;1.00
3684;DHT22;1858;48.716;9.648;2023-04-01T07:45:55;11.80;99.90
3684;DHT22;1858;48.716;9.648;2023-04-01T07:51:19;11.80;99.90
3684;DHT22;1858;48.716;9.648;2023-04-01T07:54:06;11.80;99.90
3684;DHT22;1858;48.716;9.648;2023-04-01T07:57:02;11.80;99.90
3684;DHT22;1858;48.716;9.648;2023-04-01T07:59:34;11.90;99.90
3684;DHT22;1858;48.716;9.648;2023-04-01T08:05:19;11.90;99.90
3684;DHT22;1858;48.716;9.648;2023-04-01T08:11:15;11.90;99.90
3684;DHT22;1858;48.716;9.648;2023-04-01T08:13:43;11.90;99.90
3684;DHT22;1858;48.716;9.648;2023-04-01T08:16:20;11.90;99.90
3684;DHT22;1858;48.716;9.648;2023-04-01T08:18:57;11.80;99.90
3684;DHT22;1858;48.716;9.648;2023-04-01T08:21:29;11.80;99.90
3684;DHT22;1858;48.716;9.648;2023-04-01T08:23:57;11.80;99.90
3684;DHT22;1858;48.716;9.648;2023-04-01T08:26:30;11.70;99.90
3684;DHT22;1858;48.716;9.648;2023-04-01T08:29:15;11.80;99.90
3684;DHT22;1858;48.716;9.648;2023-04-01T08:31:56;11.80;99.90
3684;DHT22;1858;48.716;9.648;2023-04-01T08:34:21;11.80;99.90
3684;DHT22;1858;48.716;9.648;2023-04-01T08:36:53;11.70;99.90
3684;DHT22;1858;48.716;9.648;2023-04-01T08:39:41;11.70;99.90
3684;DHT22;1858;48.716;9.648;2023-04-01T08:42:39;11.70;99.90
3684;DHT22;1858;48.716;9.648;2023-04-01T08:56:54;11.80;99.90
3684;DHT22;1858;48.716;9.648;2023-04-01T09:10:46;11.70;99.90
3684;DHT22;1858;48.716;9.648;2023-04-01T09:13:24;11.80;99.90
3684;DHT22;1858;48.716;9.648;2023-04-01T09:16:07;11.90;1.00
3684;DHT22;1858;48.716;9.648;2023-04-01T09:32:41;12.00;1.00
3684;DHT22;1858;48.716;9.648;2023-04-01T09:35:42;12.10;1.00
3684;DHT22;1858;48.716;9.648;2023-04-01T09:40:48;11.80;1.00
3684;DHT22;1858;48.716;9.648;2023-04-01T09:46:19;11.60;1.00
3684;DHT22;1858;48.716;9.648;2023-04-01T09:52:02;11.50;1.00
3684;DHT22;1858;48.716;9.648;2023-04-01T09:54:36;11.50;1.00
3684;DHT22;1858;48.716;9.648;2023-04-01T10:08:58;11.60;1.00
3684;DHT22;1858;48.716;9.648;2023-04-01T10:11:40;11.60;1.00
3684;DHT22;1858;48.716;9.648;2023-04-01T10:17:08;11.70;1.00
3684;DHT22;1858;48.716;9.648;2023-04-01T10:19:55;11.70;1.00
3684;DHT22;1858;48.716;9.648;2023-04-01T10:31:09;11.50;1.00
3684;DHT22;1858;48.716;9.648;2023-04-01T10:36:55;11.50;1.00
3684;DHT22;1858;48.716;9.648;2023-04-01T10:42:53;11.80;1.00
3684;DHT22;1858;48.716;9.648;2023-04-01T10:51:16;11.60;1.00
3684;DHT22;1858;48.716;9.648;2023-04-01T10:56:54;11.50;1.00
3684;DHT22;1858;48.716;9.648;2023-04-01T10:59:35;11.40;1.00
3684;DHT22;1858;48.716;9.648;2023-04-01T11:30:41;11.80;1.00
3684;DHT22;1858;48.716;9.648;2023-04-01T11:36:20;11.50;1.00
3684;DHT22;1858;48.716;9.648;2023-04-01T11:41:57;11.60;1.00
3684;DHT22;1858;48.716;9.648;2023-04-01T11:44:26;11.70;1.00
3684;DHT22;1858;48.716;9.648;2023-04-01T11:47:19;11.70;1.00
3684;DHT22;1858;48.716;9.648;2023-04-01T11:49:59;11.70;1.00
3684;DHT22;1858;48.716;9.648;2023-04-01T11:52:55;11.60;1.00
3684;DHT22;1858;48.716;9.648;2023-04-01T11:58:23;11.50;1.00
3684;DHT22;1858;48.716;9.648;2023-04-01T12:01:13;11.40;1.00
3684;DHT22;1858;48.716;9.648;2023-04-01T12:03:58;11.50;1.00
3684;DHT22;1858;48.716;9.648;2023-04-01T12:06:32;11.60;15.80
3684;DHT22;1858;48.716;9.648;2023-04-01T12:09:12;11.70;1.00
3684;DHT22;1858;48.716;9.648;2023-04-01T12:25:29;12.00;1.00
3684;DHT22;1858;48.716;9.648;2023-04-01T12:28:25;12.00;1.00
3684;DHT22;1858;48.716;9.648;2023-04-01T12:36:46;12.10;1.00
3684;DHT22;1858;48.716;9.648;2023-04-01T12:45:40;12.20;1.00
3684;DHT22;1858;48.716;9.648;2023-04-01T12:51:08;11.90;1.00
3684;DHT22;1858;48.716;9.648;2023-04-01T13:02:07;11.80;1.00
3684;DHT22;1858;48.716;9.648;2023-04-01T13:07:40;11.90;1.00
3684;DHT22;1858;48.716;9.648;2023-04-01T13:10:27;11.70;1.00
3684;DHT22;1858;48.716;9.648;2023-04-01T13:13:00;11.60;1.00
3684;DHT22;1858;48.716;9.648;2023-04-01T13:15:36;11.60;1.00
3684;DHT22;1858;48.716;9.648;2023-04-01T13:18:25;11.70;1.00
3684;DHT22;1858;48.716;9.648;2023-04-01T13:24:06;11.90;1.00
3684;DHT22;1858;48.716;9.648;2023-04-01T13:26:53;11.90;1.00
3684;DHT22;1858;48.716;9.648;2023-04-01T13:29:40;12.20;1.00
3684;DHT22;1858;48.716;9.648;2023-04-01T13:35:16;12.20;1.00
3684;DHT22;1858;48.716;9.648;2023-04-01T13:48:57;11.90;1.00
3684;DHT22;1858;48.716;9.648;2023-04-01T13:52:03;11.80;1.00
3684;DHT22;1858;48.716;9.648;2023-04-01T13:57:28;11.70;1.00
3684;DHT22;1858;48.716;9.648;2023-04-01T14:08:54;11.80;1.00
3684;DHT22;1858;48.716;9.648;2023-04-01T14:14:18;11.90;1.00
3684;DHT22;1858;48.716;9.648;2023-04-01T14:25:44;12.20;1.00
3684;DHT22;1858;48.716;9.648;2023-04-01T14:28:18;12.10;1.00
3684;DHT22;1858;48.716;9.648;2023-04-01T14:33:43;12.30;1.00
3684;DHT22;1858;48.716;9.648;2023-04-01T14:39:13;12.10;1.00
3684;DHT22;1858;48.716;9.648;2023-04-01T14:41:44;12.10;1.00
3684;DHT22;1858;48.716;9.648;2023-04-01T14:44:30;12.20;1.00
3684;DHT22;1858;48.716;9.648;2023-04-01T14:49:54;12.20;1.00
3684;DHT22;1858;48.716;9.648;2023-04-01T14:52:28;12.30;1.00
3684;DHT22;1858;48.716;9.648;2023-04-01T14:54:58;12.30;1.00
3684;DHT22;1858;48.716;9.648;2023-04-01T14:57:30;12.30;1.00
3684;DHT22;1858;48.716;9.648;2023-04-01T15:08:43;12.10;1.00
3684;DHT22;1858;48.716;9.648;2023-04-01T15:25:18;12.00;1.00
3684;DHT22;1858;48.716;9.648;2023-04-01T15:27:47;11.80;1.00
3684;DHT22;1858;48.716;9.648;2023-04-01T15:33:21;11.70;1.00
3684;DHT22;1858;48.716;9.648;2023-04-01T15:38:49;11.60;1.00
3684;DHT22;1858;48.716;9.648;2023-04-01T15:47:02;11.60;1.00
3684;DHT22;1858;48.716;9.648;2023-04-01T15:49:55;11.60;1.00
3684;DHT22;1858;48.716;9.648;2023-04-01T15:52:21;11.60;1.00
3684;DHT22;1858;48.716;9.648;2023-04-01T15:57:51;11.40;1.00
3684;DHT22;1858;48.716;9.648;2023-04-01T16:00:28;11.40;1.00
3684;DHT22;1858;48.716;9.648;2023-04-01T16:08:43;11.40;1.00
3684;DHT22;1858;48.716;9.648;2023-04-01T16:11:14;11.30;1.00
3684;DHT22;1858;48.716;9.648;2023-04-01T16:16:39;11.30;1.00
3684;DHT22;1858;48.716;9.648;2023-04-01T16:21:50;11.30;1.00
3684;DHT22;1858;48.716;9.648;2023-04-01T16:24:40;11.20;1.00
3684;DHT22;1858;48.716;9.648;2023-04-01T16:27:28;11.30;1.00
3684;DHT22;1858;48.716;9.648;2023-04-01T16:33:01;11.20;1.00
3684;DHT22;1858;48.716;9.648;2023-04-01T16:35:30;11.10;1.00
3684;DHT22;1858;48.716;9.648;2023-04-01T16:38:30;11.20;1.00
3684;DHT22;1858;48.716;9.648;2023-04-01T16:43:42;11.10;1.00
3684;DHT22;1858;48.716;9.648;2023-04-01T16:49:00;11.10;1.00
3684;DHT22;1858;48.716;9.648;2023-04-01T16:57:37;11.20;1.00
3684;DHT22;1858;48.716;9.648;2023-04-01T17:11:05;11.20;1.00
3684;DHT22;1858;48.716;9.648;2023-04-01T17:13:35;11.20;1.00
3684;DHT22;1858;48.716;9.648;2023-04-01T17:16:38;11.30;1.00
3684;DHT22;1858;48.716;9.648;2023-04-01T17:27:33;11.50;1.00
3684;DHT22;1858;48.716;9.648;2023-04-01T17:33:08;11.50;1.00
3684;DHT22;1858;48.716;9.648;2023-04-01T17:35:54;11.60;1.00
3684;DHT22;1858;48.716;9.648;2023-04-01T17:41:28;11.60;1.00
3684;DHT22;1858;48.716;9.648;2023-04-01T17:44:05;11.60;1.00
3684;DHT22;1858;48.716;9.648;2023-04-01T17:49:37;11.60;1.00
3684;DHT22;1858;48.716;9.648;2023-04-01T17:52:37;11.60;1.00
3684;DHT22;1858;48.716;9.648;2023-04-01T17:58:20;11.50;1.00
3684;DHT22;1858;48.716;9.648;2023-04-01T18:12:31;11.40;1.00
3684;DHT22;1858;48.716;9.648;2023-04-01T18:18:09;11.50;1.00
3684;DHT22;1858;48.716;9.648;2023-04-01T18:25:44;11.40;1.00
3684;DHT22;1858;48.716;9.648;2023-04-01T18:28:38;11.50;1.00
3684;DHT22;1858;48.716;9.648;2023-04-01T18:31:13;11.50;1.00
3684;DHT22;1858;48.716;9.648;2023-04-01T18:33:45;11.40;1.00
3684;DHT22;1858;48.716;9.648;2023-04-01T18:36:44;11.40;1.00
3684;DHT22;1858;48.716;9.648;2023-04-01T18:39:16;11.40;1.00
3684;DHT22;1858;48.716;9.648;2023-04-01T18:42:10;11.30;1.00
3684;DHT22;1858;48.716;9.648;2023-04-01T18:44:49;11.20;1.00
3684;DHT22;1858;48.716;9.648;2023-04-01T18:47:30;11.20;1.00
3684;DHT22;1858;48.716;9.648;2023-04-01T18:52:43;11.20;1.00
3684;DHT22;1858;48.716;9.648;2023-04-01T18:55:30;11.20;1.00
3684;DHT22;1858;48.716;9.648;2023-04-01T19:01:02;11.20;1.00
3684;DHT22;1858;48.716;9.648;2023-04-01T19:06:35;11.10;1.00
3684;DHT22;1858;48.716;9.648;2023-04-01T19:09:14;10.90;1.00
3684;DHT22;1858;48.716;9.648;2023-04-01T19:11:50;10.90;53.80
3684;DHT22;1858;48.716;9.648;2023-04-01T19:14:23;10.70;99.90
3684;DHT22;1858;48.716;9.648;2023-04-01T19:16:54;10.70;99.90
3684;DHT22;1858;48.716;9.648;2023-04-01T19:25:26;10.40;99.90
3684;DHT22;1858;48.716;9.648;2023-04-01T19:33:27;10.40;99.90
3684;DHT22;1858;48.716;9.648;2023-04-01T19:39:00;10.40;99.90
3684;DHT22;1858;48.716;9.648;2023-04-01T19:48:20;10.20;99.90
3684;DHT22;1858;48.716;9.648;2023-04-01T19:52:44;10.00;99.90
3684;DHT22;1858;48.716;9.648;2023-04-01T19:55:37;9.90;99.90
3684;DHT22;1858;48.716;9.648;2023-04-01T19:58:12;9.80;99.90
3684;DHT22;1858;48.716;9.648;2023-04-01T20:00:44;9.80;99.90
3684;DHT22;1858;48.716;9.648;2023-04-01T20:04:17;9.80;99.90
3684;DHT22;1858;48.716;9.648;2023-04-01T20:06:23;9.90;99.90
3684;DHT22;1858;48.716;9.648;2023-04-01T20:11:53;10.00;99.90
3684;DHT22;1858;48.716;9.648;2023-04-01T20:14:32;10.10;99.90
3684;DHT22;1858;48.716;9.648;2023-04-01T20:20:03;10.10;76.20
3684;DHT22;1858;48.716;9.648;2023-04-01T20:22:56;10.10;59.70
3684;DHT22;1858;48.716;9.648;2023-04-01T20:25:42;10.20;84.00
3684;DHT22;1858;48.716;9.648;2023-04-01T20:28:28;10.20;73.40
3684;DHT22;1858;48.716;9.648;2023-04-01T20:39:48;10.10;56.00
3684;DHT22;1858;48.716;9.648;2023-04-01T20:42:04;10.10;97.40
3684;DHT22;1858;48.716;9.648;2023-04-01T20:50:37;10.30;99.90
3684;DHT22;1858;48.716;9.648;2023-04-01T20:53:12;10.40;99.90
3684;DHT22;1858;48.716;9.648;2023-04-01T20:56:10;10.40;55.90
3684;DHT22;1858;48.716;9.648;2023-04-01T21:01:30;10.40;59.90
3684;DHT22;1858;48.716;9.648;2023-04-01T21:09:55;10.20;71.80
3684;DHT22;1858;48.716;9.648;2023-04-01T21:17:58;10.10;99.90
3684;DHT22;1858;48.716;9.648;2023-04-01T21:20:49;10.00;99.90
3684;DHT22;1858;48.716;9.648;2023-04-01T21:23:38;10.10;99.90
3684;DHT22;1858;48.716;9.648;2023-04-01T21:26:12;10.10;99.90
3684;DHT22;1858;48.716;9.648;2023-04-01T21:31:55;10.10;99.90
3684;DHT22;1858;48.716;9.648;2023-04-01T21:34:43;10.10;99.90
3684;DHT22;1858;48.716;9.648;2023-04-01T21:37:33;10.20;99.90
3684;DHT22;1858;48.716;9.648;2023-04-01T21:40:20;10.20;99.90
3684;DHT22;1858;48.716;9.648;2023-04-01T22:02:22;10.30;99.90
3684;DHT22;1858;48.716;9.648;2023-04-01T22:05:02;10.30;99.90
3684;DHT22;1858;48.716;9.648;2023-04-01T22:07:46;10.20;99.90
3684;DHT22;1858;48.716;9.648;2023-04-01T22:10:18;10.10;99.90
3684;DHT22;1858;48.716;9.648;2023-04-01T22:13:22;10.10;99.90
3684;DHT22;1858;48.716;9.648;2023-04-01T22:18:42;10.10;99.90
3684;DHT22;1858;48.716;9.648;2023-04-01T22:21:13;10.00;99.90
3684;DHT22;1858;48.716;9.648;2023-04-01T22:23:51;10.00;99.90
3684;DHT22;1858;48.716;9.648;2023-04-01T22:26:37;10.00;99.90
3684;DHT22;1858;48.716;9.648;2023-04-01T22:31:55;9.80;99.90
3684;DHT22;1858;48.716;9.648;2023-04-01T22:34:33;9.80;99.90
3684;DHT22;1858;48.716;9.648;2023-04-01T22:37:03;9.80;99.90
3684;DHT22;1858;48.716;9.648;2023-04-01T22:50:28;9.80;99.90
3684;DHT22;1858;48.716;9.648;2023-04-01T22:53:17;9.90;99.90
3684;DHT22;1858;48.716;9.648;2023-04-01T22:55:47;9.80;99.90
3684;DHT22;1858;48.716;9.648;2023-04-01T22:58:19;9.80;99.90
3684;DHT22;1858;48.716;9.648;2023-04-01T23:00:54;9.80;99.90
3684;DHT22;1858;48.716;9.648;2023-04-01T23:03:33;9.90;99.90
3684;DHT22;1858;48.716;9.648;2023-04-01T23:06:04;9.90;99.90
3684;DHT22;1858;48.716;9.648;2023-04-01T23:08:54;9.90;99.90
3684;DHT22;1858;48.716;9.648;2023-04-01T23:11:28;9.90;99.90
3684;DHT22;1858;48.716;9.648;2023-04-01T23:16:50;9.90;99.90
3684;DHT22;1858;48.716;9.648;2023-04-01T23:19:31;9.90;99.90
3684;DHT22;1858;48.716;9.648;2023-04-01T23:25:00;9.90;34.80
3684;DHT22;1858;48.716;9.648;2023-04-01T23:35:49;9.70;52.20
3684;DHT22;1858;48.716;9.648;2023-04-01T23:38:19;9.70;50.90
3684;DHT22;1858;48.716;9.648;2023-04-01T23:40:50;9.70;52.20
3684;DHT22;1858;48.716;9.648;2023-04-01T23:43:25;9.60;68.20
3684;DHT22;1858;48.716;9.648;2023-04-01T23:46:01;9.60;78.70
3684;DHT22;1858;48.716;9.648;2023-04-01T23:48:35;9.60;36.90
3684;DHT22;1858;48.716;9.648;2023-04-01T23:51:03;9.60;30.80
3684;DHT22;1858;48.716;9.648;2023-04-01T23:53:34;9.60;46.40
3684;DHT22;1858;48.716;9.648;2023-04-01T23:56:03;9.70;68.30
3684;DHT22;1858;48.716;9.648;2023-04-01T23:58:43;9.80;53.70
